Breckenridge, Illinois
Current Conditions -  °F | °C
As of 5:52 AM on Monday 20 Oct 2014 (Local Time) from KSPI Reporting Station
Clear Clear  
Wind Chill: 52°   Ceiling: Unl
Heat Index: 52°   Visibility: 10mi
Dew Point: 47°   Wind: 6mph
Humidity: 83%   Direction: 230°SW
Pressure: 29.91"   Gusts: NA
Location:  39.7312°N, 89.5322°W
Report Text: KSPI 201052Z 23005KT 10SM CLR 11/08 A2991 RMK AO2 SLP129 T01110083
Loading
Personal Weather Stations






























Interactive Weather Map
Tropical Storm Tracking
New forecast layout! Learn more

10-Day Weather Forecast

Advertisements
Track Severe Weather on mobile